createdAt,value
2022-08-16T00:03:13.635Z,12.18
2022-08-16T00:08:36.099Z,10.93
2022-08-16T00:13:25.693Z,12.23
2022-08-16T00:18:32.839Z,12.70
2022-08-16T00:23:40.375Z,13.35
2022-08-16T00:28:45.722Z,16.87
2022-08-16T00:33:51.457Z,13.80
2022-08-16T00:38:58.334Z,15.13
2022-08-16T00:44:11.276Z,13.00
2022-08-16T00:49:19.571Z,12.05
2022-08-16T00:54:26.808Z,15.97
2022-08-16T00:59:35.789Z,18.92
2022-08-16T01:04:42.857Z,16.25
2022-08-16T01:09:49.896Z,17.23
2022-08-16T01:14:58.297Z,13.73
2022-08-16T01:20:23.702Z,13.83
2022-08-16T01:25:18.334Z,15.10
2022-08-16T01:30:31.337Z,15.07
2022-08-16T01:35:42.270Z,17.95
2022-08-16T01:40:49.477Z,15.98
2022-08-16T01:45:58.317Z,19.07
2022-08-16T01:51:07.955Z,18.33
2022-08-16T01:56:24.983Z,18.00
2022-08-16T02:01:20.188Z,14.33
2022-08-16T02:06:34.335Z,15.83
2022-08-16T02:11:47.883Z,15.10
2022-08-16T02:16:41.027Z,23.40
2022-08-16T02:22:08.319Z,16.35
2022-08-16T02:26:58.566Z,17.30
2022-08-16T02:32:51.100Z,15.17
2022-08-16T02:37:12.627Z,17.00
2022-08-16T02:42:19.588Z,18.50
2022-08-16T02:47:25.773Z,15.77
2022-08-16T02:52:32.139Z,22.30
2022-08-16T02:57:42.370Z,25.23
2022-08-16T03:02:46.706Z,18.77
2022-08-16T03:07:53.506Z,20.97
2022-08-16T03:12:59.941Z,19.90
2022-08-16T03:18:05.416Z,18.17
2022-08-16T03:23:12.871Z,18.93
2022-08-16T03:28:20.934Z,26.23
2022-08-16T03:33:29.771Z,17.70
2022-08-16T03:38:35.315Z,23.53
2022-08-16T03:43:51.707Z,26.03
2022-08-16T03:48:47.922Z,21.90
2022-08-16T03:54:00.795Z,18.53
2022-08-16T03:59:02.052Z,19.90
2022-08-16T04:04:07.608Z,28.20
2022-08-16T04:09:14.478Z,29.17
2022-08-16T04:14:32.306Z,21.77
2022-08-16T04:19:31.719Z,26.27
2022-08-16T04:24:36.040Z,22.40
2022-08-16T04:29:43.946Z,21.43
2022-08-16T04:34:50.412Z,31.10
2022-08-16T04:39:57.235Z,29.67
2022-08-16T04:45:04.468Z,22.93
2022-08-16T04:50:18.472Z,22.63
2022-08-16T04:55:31.808Z,23.77
2022-08-16T05:00:36.083Z,29.47
2022-08-16T05:05:45.166Z,25.30
2022-08-16T05:10:49.965Z,29.17
2022-08-16T05:15:55.657Z,23.43
2022-08-16T05:21:11.047Z,23.83
2022-08-16T05:26:20.244Z,20.82
2022-08-16T05:31:17.006Z,24.93
2022-08-16T05:36:23.182Z,25.20
2022-08-16T05:41:30.672Z,19.32
2022-08-16T05:46:36.462Z,23.27
2022-08-16T05:51:45.809Z,25.52
2022-08-16T05:56:51.544Z,22.30
2022-08-16T06:01:57.380Z,19.27
2022-08-16T06:07:06.800Z,21.82
2022-08-16T06:12:27.074Z,20.90
2022-08-16T06:17:23.487Z,21.97
2022-08-16T06:22:39.421Z,21.02
2022-08-16T06:27:39.850Z,20.20
2022-08-16T06:32:48.539Z,26.75
2022-08-16T06:37:51.365Z,21.30
2022-08-16T06:42:57.918Z,25.82
2022-08-16T06:48:03.436Z,22.25
2022-08-16T06:53:10.486Z,20.27
2022-08-16T06:58:21.870Z,20.20
2022-08-16T07:03:27.611Z,16.45
2022-08-16T07:08:30.518Z,19.10
2022-08-16T07:14:22.996Z,21.25
2022-08-16T07:18:59.211Z,18.10
2022-08-16T07:23:58.066Z,19.20
2022-08-16T07:29:02.138Z,19.35
2022-08-16T07:34:10.259Z,16.90
2022-08-16T07:39:19.008Z,15.98
2022-08-16T07:44:26.755Z,16.30
2022-08-16T07:49:32.580Z,22.52
2022-08-16T07:54:45.598Z,23.67
2022-08-16T07:59:46.038Z,20.20
2022-08-16T08:04:51.975Z,17.77
2022-08-16T08:09:58.678Z,19.23
2022-08-16T08:15:09.692Z,14.43
2022-08-16T08:20:26.084Z,13.50
2022-08-16T08:25:23.398Z,15.80
2022-08-16T08:30:52.295Z,14.20
2022-08-16T08:35:35.990Z,16.10
2022-08-16T08:40:41.492Z,16.80
2022-08-16T08:45:49.171Z,14.18
2022-08-16T08:50:54.319Z,18.65
2022-08-16T08:56:23.306Z,16.65
2022-08-16T09:01:10.197Z,15.80
2022-08-16T09:06:18.429Z,19.02
2022-08-16T09:11:24.288Z,16.48
2022-08-16T09:16:57.688Z,20.15
2022-08-16T09:21:40.836Z,14.35
2022-08-16T09:26:47.910Z,13.70
2022-08-16T09:31:58.361Z,17.02
2022-08-16T09:37:17.900Z,22.52
2022-08-16T09:42:11.915Z,21.57
2022-08-16T09:47:18.919Z,15.30
2022-08-16T09:52:26.468Z,16.52
2022-08-16T09:57:34.402Z,15.08
2022-08-16T10:02:44.224Z,15.75
2022-08-16T10:07:47.445Z,19.73
2022-08-16T10:13:10.347Z,12.95
2022-08-16T10:18:48.286Z,12.78
2022-08-16T10:23:24.631Z,16.75
2022-08-16T10:28:40.309Z,13.83
2022-08-16T10:33:40.364Z,12.15
2022-08-16T10:38:45.827Z,19.42
2022-08-16T10:43:51.511Z,15.13
2022-08-16T10:48:57.163Z,12.50
2022-08-16T10:54:04.826Z,16.52
2022-08-16T11:09:28.631Z,16.73
2022-08-16T11:14:31.879Z,11.10
2022-08-16T11:20:00.625Z,11.88
2022-08-16T11:24:44.891Z,11.28
2022-08-16T11:29:54.851Z,11.33
2022-08-16T11:35:13.824Z,11.40
2022-08-16T11:40:10.099Z,14.58
2022-08-16T11:45:18.980Z,16.93
2022-08-16T11:50:24.878Z,13.85
2022-08-16T11:55:30.263Z,14.90
2022-08-16T12:00:51.325Z,18.37
2022-08-16T12:05:46.229Z,16.93
2022-08-16T12:10:53.282Z,17.27
2022-08-16T12:15:58.584Z,21.12
2022-08-16T12:21:04.764Z,18.02
2022-08-16T12:26:10.254Z,14.13
2022-08-16T12:31:17.327Z,16.77
2022-08-16T12:36:23.683Z,17.42
2022-08-16T12:41:29.261Z,22.27
2022-08-16T12:46:36.869Z,19.65
2022-08-16T12:51:59.360Z,18.32
2022-08-16T12:56:50.933Z,24.27
2022-08-16T13:01:58.543Z,23.75
2022-08-16T13:07:06.127Z,73.28
2022-08-16T13:12:29.029Z,16.45
2022-08-16T13:17:34.586Z,22.90
2022-08-16T13:22:45.400Z,29.20
2022-08-16T13:28:02.494Z,24.07
2022-08-16T13:33:00.600Z,24.23
2022-08-16T13:38:06.373Z,13.68
2022-08-16T13:43:12.043Z,13.50
2022-08-16T13:48:21.782Z,11.73
2022-08-16T13:53:25.990Z,8.15
2022-08-16T13:58:34.795Z,12.43
2022-08-16T14:03:40.090Z,12.73
2022-08-16T14:08:45.588Z,19.42
2022-08-16T14:13:52.931Z,11.30
2022-08-16T14:18:58.356Z,12.35
2022-08-16T14:24:08.126Z,6.95
2022-08-16T14:29:12.679Z,10.08
2022-08-16T14:34:18.890Z,11.97
2022-08-16T14:39:25.618Z,17.67
2022-08-16T14:44:30.971Z,8.45
2022-08-16T14:49:37.875Z,11.35
2022-08-16T14:54:45.180Z,11.50
2022-08-16T14:59:52.199Z,12.07
2022-08-16T15:04:58.710Z,10.10
2022-08-16T15:10:05.018Z,11.55
2022-08-16T15:15:16.613Z,10.08
2022-08-16T15:20:21.589Z,13.70
2022-08-16T15:25:31.433Z,12.30
2022-08-16T15:30:56.739Z,12.18
2022-08-16T15:35:47.595Z,13.90
2022-08-16T15:40:58.565Z,15.18
2022-08-16T15:46:53.962Z,15.55
2022-08-16T15:51:26.368Z,14.93
2022-08-16T15:56:32.052Z,22.37
2022-08-16T16:01:37.394Z,13.85
2022-08-16T16:06:45.091Z,16.07
2022-08-16T16:11:50.474Z,45.12
2022-08-16T16:16:56.936Z,16.15
2022-08-16T16:22:02.355Z,12.70
2022-08-16T16:27:08.081Z,16.42
2022-08-16T16:32:13.600Z,13.55
2022-08-16T16:37:20.641Z,13.43
2022-08-16T16:42:29.882Z,18.98
2022-08-16T16:47:40.558Z,25.37
2022-08-16T16:52:45.121Z,15.85
2022-08-16T16:58:17.973Z,16.00
2022-08-16T17:03:17.279Z,12.80
2022-08-16T17:08:24.219Z,17.07
2022-08-16T17:13:30.133Z,16.65
2022-08-16T17:19:17.095Z,16.85
2022-08-16T17:23:58.180Z,14.40
2022-08-16T17:28:58.201Z,17.60
2022-08-16T17:33:58.631Z,12.93
2022-08-16T17:39:07.852Z,19.98
2022-08-16T17:44:14.784Z,25.20
2022-08-16T17:49:20.265Z,18.37
2022-08-16T17:54:30.640Z,19.87
2022-08-16T17:59:32.980Z,18.40
2022-08-16T18:04:48.236Z,21.65
2022-08-16T18:09:47.009Z,20.70
2022-08-16T18:14:54.943Z,22.73
2022-08-16T18:19:59.546Z,20.20
2022-08-16T18:25:06.842Z,26.17
2022-08-16T18:30:14.740Z,22.65
2022-08-16T18:35:21.652Z,23.32
2022-08-16T18:40:27.051Z,23.32
2022-08-16T18:45:35.288Z,26.15
2022-08-16T18:51:04.918Z,41.80
2022-08-16T18:55:52.965Z,37.97
2022-08-16T19:00:58.948Z,32.90
2022-08-16T19:06:13.839Z,39.05
2022-08-16T19:11:22.742Z,36.60
2022-08-16T19:16:28.048Z,49.27
2022-08-16T19:21:33.384Z,42.33
2022-08-16T19:26:38.925Z,45.30
2022-08-16T19:31:44.650Z,39.20
2022-08-16T19:36:51.406Z,35.33
2022-08-16T19:42:16.954Z,33.55
2022-08-16T19:47:23.297Z,38.13
2022-08-16T19:52:32.167Z,28.13
2022-08-16T19:57:39.130Z,26.17
2022-08-16T20:03:03.133Z,23.57
2022-08-16T20:08:08.798Z,27.70
2022-08-16T20:13:19.746Z,30.40
2022-08-16T20:18:26.222Z,32.80
2022-08-16T20:23:31.736Z,26.63
2022-08-16T20:28:51.947Z,29.43
2022-08-16T20:33:44.277Z,30.45
2022-08-16T20:38:50.376Z,27.58
2022-08-16T20:43:55.873Z,29.30
2022-08-16T20:49:01.407Z,27.80
2022-08-16T20:54:06.919Z,26.47
2022-08-16T20:59:12.757Z,25.73
2022-08-16T21:04:19.491Z,23.63
2022-08-16T21:09:31.577Z,30.17
2022-08-16T21:14:37.882Z,24.17
2022-08-16T21:19:45.209Z,18.53
2022-08-16T21:24:54.112Z,16.50
2022-08-16T21:29:57.907Z,20.30
2022-08-16T21:35:07.635Z,18.60
2022-08-16T21:40:14.837Z,17.43
2022-08-16T21:45:20.637Z,19.17
2022-08-16T21:50:27.549Z,20.57
2022-08-16T21:55:33.102Z,25.40
2022-08-16T22:00:39.683Z,25.30
2022-08-16T22:06:13.393Z,25.63
2022-08-16T22:11:06.266Z,24.87
2022-08-16T22:16:01.711Z,28.40
2022-08-16T22:21:07.328Z,25.03
2022-08-16T22:26:15.012Z,30.40
2022-08-16T22:31:20.504Z,24.23
2022-08-16T22:36:29.162Z,23.80
2022-08-16T22:41:35.884Z,29.10
2022-08-16T22:46:41.531Z,21.87
2022-08-16T22:51:47.161Z,23.23
2022-08-16T22:56:53.047Z,28.27
2022-08-16T23:01:59.687Z,21.70
2022-08-16T23:07:06.906Z,21.10
2022-08-16T23:12:12.551Z,24.20
2022-08-16T23:17:19.842Z,28.07
2022-08-16T23:22:25.265Z,21.87
2022-08-16T23:27:30.753Z,22.33
2022-08-16T23:32:37.945Z,26.53
2022-08-16T23:37:44.058Z,23.93
2022-08-16T23:43:07.675Z,27.87
2022-08-16T23:48:15.206Z,28.97
2022-08-16T23:53:32.732Z,24.17
2022-08-16T23:58:41.062Z,28.23
